sensor_id;sensor_type;location;lat;lon;timestamp;pressure;altitude;pressure_sealevel;temperature;humidity
56420;BME280;42323;52.170;7.538;2023-03-18T00:03:13;100300.41;;;9.72;nan
56420;BME280;42323;52.170;7.538;2023-03-18T00:06:31;100339.41;;;9.97;nan
56420;BME280;42323;52.170;7.538;2023-03-18T00:09:48;100305.47;;;9.74;nan
56420;BME280;42323;52.170;7.538;2023-03-18T00:12:27;100300.22;;;9.74;nan
56420;BME280;42323;52.170;7.538;2023-03-18T00:15:46;100397.16;;;10.33;nan
56420;BME280;42323;52.170;7.538;2023-03-18T00:22:12;100364.22;;;10.01;nan
56420;BME280;42323;52.170;7.538;2023-03-18T00:28:06;100405.84;;;10.34;nan
56420;BME280;42323;52.170;7.538;2023-03-18T00:31:08;100327.84;;;9.91;nan
56420;BME280;42323;52.170;7.538;2023-03-18T00:34:22;100357.56;;;10.13;nan
56420;BME280;42323;52.170;7.538;2023-03-18T00:40:42;100363.25;;;10.17;nan
56420;BME280;42323;52.170;7.538;2023-03-18T00:53:51;100373.94;;;10.30;nan
56420;BME280;42323;52.170;7.538;2023-03-18T00:57:04;100342.13;;;10.03;nan
56420;BME280;42323;52.170;7.538;2023-03-18T01:00:15;100334.28;;;10.03;nan
56420;BME280;42323;52.170;7.538;2023-03-18T01:03:43;100370.72;;;10.28;nan
56420;BME280;42323;52.170;7.538;2023-03-18T01:06:59;100344.75;;;10.18;nan
56420;BME280;42323;52.170;7.538;2023-03-18T01:10:02;100383.78;;;10.43;nan
56420;BME280;42323;52.170;7.538;2023-03-18T01:13:22;100331.22;;;10.00;nan
56420;BME280;42323;52.170;7.538;2023-03-18T01:20:20;100321.47;;;9.94;nan
56420;BME280;42323;52.170;7.538;2023-03-18T01:24:02;100319.31;;;9.97;nan
56420;BME280;42323;52.170;7.538;2023-03-18T01:27:52;100274.34;;;9.64;nan
56420;BME280;42323;52.170;7.538;2023-03-18T01:31:17;100388.78;;;10.38;nan
56420;BME280;42323;52.170;7.538;2023-03-18T01:34:25;100320.66;;;9.93;nan
56420;BME280;42323;52.170;7.538;2023-03-18T01:40:53;100290.94;;;9.71;nan
56420;BME280;42323;52.170;7.538;2023-03-18T01:44:02;100351.53;;;10.13;nan
56420;BME280;42323;52.170;7.538;2023-03-18T01:47:24;100393.72;;;10.47;nan
56420;BME280;42323;52.170;7.538;2023-03-18T01:54:08;100398.69;;;10.42;76.82
56420;BME280;42323;52.170;7.538;2023-03-18T01:56:36;100398.69;;;10.42;77.21
56420;BME280;42323;52.170;7.538;2023-03-18T01:59:05;100390.19;;;10.40;77.02
56420;BME280;42323;52.170;7.538;2023-03-18T02:01:39;100391.75;;;10.49;77.01
56420;BME280;42323;52.170;7.538;2023-03-18T02:04:08;100395.19;;;10.50;76.68
56420;BME280;42323;52.170;7.538;2023-03-18T02:06:37;100396.81;;;10.51;76.68
56420;BME280;42323;52.170;7.538;2023-03-18T02:09:05;100393.53;;;10.49;76.59
56420;BME280;42323;52.170;7.538;2023-03-18T02:11:34;100399.63;;;10.49;77.22
56420;BME280;42323;52.170;7.538;2023-03-18T02:14:01;100391.56;;;10.51;77.07
56420;BME280;42323;52.170;7.538;2023-03-18T02:16:34;100398.06;;;10.55;77.32
56420;BME280;42323;52.170;7.538;2023-03-18T02:19:26;100404.94;;;10.56;76.70
56420;BME280;42323;52.170;7.538;2023-03-18T02:22:32;100412.16;;;10.54;77.08
56420;BME280;42323;52.170;7.538;2023-03-18T02:27:52;100410.97;;;10.57;77.16
56420;BME280;42323;52.170;7.538;2023-03-18T02:30:23;100412.97;;;10.54;77.39
56420;BME280;42323;52.170;7.538;2023-03-18T02:32:53;100405.81;;;10.48;77.23
56420;BME280;42323;52.170;7.538;2023-03-18T02:35:22;100413.34;;;10.51;77.29
56420;BME280;42323;52.170;7.538;2023-03-18T02:37:49;100417.31;;;10.47;77.90
56420;BME280;42323;52.170;7.538;2023-03-18T02:40:20;100412.16;;;10.54;77.68
56420;BME280;42323;52.170;7.538;2023-03-18T02:42:48;100414.25;;;10.59;77.44
56420;BME280;42323;52.170;7.538;2023-03-18T02:45:43;100409.56;;;10.54;77.38
56420;BME280;42323;52.170;7.538;2023-03-18T02:48:16;100418.84;;;10.57;77.05
56420;BME280;42323;52.170;7.538;2023-03-18T02:50:43;100414.59;;;10.55;77.48
56420;BME280;42323;52.170;7.538;2023-03-18T02:53:12;100422.19;;;10.50;77.40
56420;BME280;42323;52.170;7.538;2023-03-18T02:55:38;100424.00;;;10.50;78.03
56420;BME280;42323;52.170;7.538;2023-03-18T02:58:05;100426.78;;;10.48;78.00
56420;BME280;42323;52.170;7.538;2023-03-18T03:00:33;100427.78;;;10.47;78.21
56420;BME280;42323;52.170;7.538;2023-03-18T03:02:59;100431.59;;;10.45;78.28
56420;BME280;42323;52.170;7.538;2023-03-18T03:05:27;100433.91;;;10.40;78.45
56420;BME280;42323;52.170;7.538;2023-03-18T03:07:53;100423.50;;;10.32;78.31
56420;BME280;42323;52.170;7.538;2023-03-18T03:10:19;100427.88;;;10.24;78.82
56420;BME280;42323;52.170;7.538;2023-03-18T03:12:46;100430.06;;;10.13;79.39
56420;BME280;42323;52.170;7.538;2023-03-18T03:15:12;100416.16;;;9.97;79.79
56420;BME280;42323;52.170;7.538;2023-03-18T03:17:39;100431.47;;;10.00;80.30
56420;BME280;42323;52.170;7.538;2023-03-18T03:20:08;100415.50;;;9.95;80.47
56420;BME280;42323;52.170;7.538;2023-03-18T03:22:34;100422.88;;;9.92;80.29
56420;BME280;42323;52.170;7.538;2023-03-18T03:25:02;100420.78;;;9.87;80.83
56420;BME280;42323;52.170;7.538;2023-03-18T03:27:29;100430.00;;;9.83;80.48
56420;BME280;42323;52.170;7.538;2023-03-18T03:29:56;100419.44;;;9.76;80.58
56420;BME280;42323;52.170;7.538;2023-03-18T03:32:22;100435.56;;;9.80;81.08
56420;BME280;42323;52.170;7.538;2023-03-18T03:34:49;100434.41;;;9.83;81.56
56420;BME280;42323;52.170;7.538;2023-03-18T03:37:16;100433.06;;;9.87;81.25
56420;BME280;42323;52.170;7.538;2023-03-18T03:39:42;100425.88;;;9.89;81.16
56420;BME280;42323;52.170;7.538;2023-03-18T03:42:09;100440.19;;;9.93;80.97
56420;BME280;42323;52.170;7.538;2023-03-18T03:44:36;100424.34;;;9.94;81.30
56420;BME280;42323;52.170;7.538;2023-03-18T03:47:03;100440.59;;;10.04;80.50
56420;BME280;42323;52.170;7.538;2023-03-18T03:49:29;100432.41;;;10.08;80.44
56420;BME280;42323;52.170;7.538;2023-03-18T03:51:56;100437.63;;;10.08;80.27
56420;BME280;42323;52.170;7.538;2023-03-18T03:54:23;100449.19;;;10.13;80.50
56420;BME280;42323;52.170;7.538;2023-03-18T03:56:51;100449.03;;;10.15;79.95
56420;BME280;42323;52.170;7.538;2023-03-18T03:59:18;100457.50;;;10.17;79.92
56420;BME280;42323;52.170;7.538;2023-03-18T04:01:45;100458.31;;;10.17;80.10
56420;BME280;42323;52.170;7.538;2023-03-18T04:04:11;100450.28;;;10.19;79.70
56420;BME280;42323;52.170;7.538;2023-03-18T04:06:38;100452.75;;;10.20;79.69
56420;BME280;42323;52.170;7.538;2023-03-18T04:09:05;100454.72;;;10.18;79.89
56420;BME280;42323;52.170;7.538;2023-03-18T04:11:31;100471.38;;;10.25;79.78
56420;BME280;42323;52.170;7.538;2023-03-18T04:13:58;100466.13;;;10.25;79.50
56420;BME280;42323;52.170;7.538;2023-03-18T04:16:24;100463.19;;;10.28;79.50
56420;BME280;42323;52.170;7.538;2023-03-18T04:18:51;100461.53;;;10.27;79.17
56420;BME280;42323;52.170;7.538;2023-03-18T04:21:17;100462.53;;;10.26;79.25
56420;BME280;42323;52.170;7.538;2023-03-18T04:23:44;100463.53;;;10.25;79.51
56420;BME280;42323;52.170;7.538;2023-03-18T04:26:11;100473.34;;;10.23;79.26
56420;BME280;42323;52.170;7.538;2023-03-18T04:28:38;100459.13;;;10.18;79.49
56420;BME280;42323;52.170;7.538;2023-03-18T04:31:05;100476.63;;;10.25;79.69
56420;BME280;42323;52.170;7.538;2023-03-18T04:33:32;100467.00;;;10.18;80.18
56420;BME280;42323;52.170;7.538;2023-03-18T04:35:58;100477.75;;;10.23;79.47
56420;BME280;42323;52.170;7.538;2023-03-18T04:38:25;100457.88;;;10.14;79.13
56420;BME280;42323;52.170;7.538;2023-03-18T04:40:53;100471.53;;;10.24;79.16
56420;BME280;42323;52.170;7.538;2023-03-18T04:43:19;100469.56;;;10.26;79.12
56420;BME280;42323;52.170;7.538;2023-03-18T04:45:46;100479.03;;;10.27;79.45
56420;BME280;42323;52.170;7.538;2023-03-18T04:48:12;100474.00;;;10.25;79.33
56420;BME280;42323;52.170;7.538;2023-03-18T04:50:39;100453.97;;;10.10;79.27
56420;BME280;42323;52.170;7.538;2023-03-18T04:53:06;100475.97;;;10.23;79.50
56420;BME280;42323;52.170;7.538;2023-03-18T04:55:32;100475.84;;;10.17;79.62
56420;BME280;42323;52.170;7.538;2023-03-18T04:57:59;100482.88;;;10.16;79.98
56420;BME280;42323;52.170;7.538;2023-03-18T05:00:26;100483.56;;;10.10;79.83
56420;BME280;42323;52.170;7.538;2023-03-18T05:02:52;100488.31;;;10.15;80.12
56420;BME280;42323;52.170;7.538;2023-03-18T05:05:19;100478.19;;;10.12;80.52
56420;BME280;42323;52.170;7.538;2023-03-18T05:07:46;100495.16;;;10.16;80.41
56420;BME280;42323;52.170;7.538;2023-03-18T05:10:13;100489.47;;;10.12;80.87
56420;BME280;42323;52.170;7.538;2023-03-18T05:12:39;100481.94;;;10.09;80.33
56420;BME280;42323;52.170;7.538;2023-03-18T05:15:07;100488.47;;;10.13;80.83
56420;BME280;42323;52.170;7.538;2023-03-18T05:17:37;100483.06;;;10.15;80.60
56420;BME280;42323;52.170;7.538;2023-03-18T05:20:05;100486.50;;;10.15;80.75
56420;BME280;42323;52.170;7.538;2023-03-18T05:22:32;100495.31;;;10.14;80.82
56420;BME280;42323;52.170;7.538;2023-03-18T05:24:59;100489.94;;;10.16;81.01
56420;BME280;42323;52.170;7.538;2023-03-18T05:27:27;100497.41;;;10.19;81.23
56420;BME280;42323;52.170;7.538;2023-03-18T05:29:55;100499.69;;;10.22;81.34
56420;BME280;42323;52.170;7.538;2023-03-18T05:32:22;100504.59;;;10.25;81.36
56420;BME280;42323;52.170;7.538;2023-03-18T05:34:49;100502.00;;;10.25;81.32
56420;BME280;42323;52.170;7.538;2023-03-18T05:37:15;100504.91;;;10.22;81.56
56420;BME280;42323;52.170;7.538;2023-03-18T05:39:42;100506.03;;;10.27;81.11
56420;BME280;42323;52.170;7.538;2023-03-18T05:42:10;100506.50;;;10.31;81.84
56420;BME280;42323;52.170;7.538;2023-03-18T05:44:36;100501.47;;;10.29;81.89
56420;BME280;42323;52.170;7.538;2023-03-18T05:47:04;100500.81;;;10.27;82.14
56420;BME280;42323;52.170;7.538;2023-03-18T05:49:30;100501.47;;;10.29;82.75
56420;BME280;42323;52.170;7.538;2023-03-18T05:51:57;100515.28;;;10.38;82.79
56420;BME280;42323;52.170;7.538;2023-03-18T05:54:24;100515.09;;;10.40;83.03
56420;BME280;42323;52.170;7.538;2023-03-18T05:56:50;100519.00;;;10.44;82.91
56420;BME280;42323;52.170;7.538;2023-03-18T05:59:19;100516.66;;;10.49;83.26
56420;BME280;42323;52.170;7.538;2023-03-18T06:01:45;100516.84;;;10.47;83.08
56420;BME280;42323;52.170;7.538;2023-03-18T06:04:12;100524.16;;;10.52;83.47
56420;BME280;42323;52.170;7.538;2023-03-18T06:06:38;100524.50;;;10.49;83.28
56420;BME280;42323;52.170;7.538;2023-03-18T06:09:07;100525.78;;;10.53;83.24
56420;BME280;42323;52.170;7.538;2023-03-18T06:11:34;100519.13;;;10.50;83.40
56420;BME280;42323;52.170;7.538;2023-03-18T06:14:00;100526.31;;;10.48;83.00
56420;BME280;42323;52.170;7.538;2023-03-18T06:16:27;100532.56;;;10.47;83.80
56420;BME280;42323;52.170;7.538;2023-03-18T06:18:54;100533.22;;;10.49;84.58
56420;BME280;42323;52.170;7.538;2023-03-18T06:21:21;100524.50;;;10.49;84.19
56420;BME280;42323;52.170;7.538;2023-03-18T06:23:48;100531.88;;;10.53;84.73
56420;BME280;42323;52.170;7.538;2023-03-18T06:26:15;100531.03;;;10.53;85.81
56420;BME280;42323;52.170;7.538;2023-03-18T06:28:42;100527.25;;;10.55;85.88
56420;BME280;42323;52.170;7.538;2023-03-18T06:31:08;100537.09;;;10.53;86.94
56420;BME280;42323;52.170;7.538;2023-03-18T06:33:36;100547.59;;;10.53;87.58
56420;BME280;42323;52.170;7.538;2023-03-18T06:36:03;100536.44;;;10.51;87.64
56420;BME280;42323;52.170;7.538;2023-03-18T06:38:30;100548.75;;;10.51;87.75
56420;BME280;42323;52.170;7.538;2023-03-18T06:40:58;100554.78;;;10.51;87.91
56420;BME280;42323;52.170;7.538;2023-03-18T06:43:25;100549.91;;;10.48;88.14
56420;BME280;42323;52.170;7.538;2023-03-18T06:45:52;100559.03;;;10.52;87.97
56420;BME280;42323;52.170;7.538;2023-03-18T06:48:19;100556.69;;;10.58;87.76
56420;BME280;42323;52.170;7.538;2023-03-18T06:50:46;100556.25;;;10.54;88.40
56420;BME280;42323;52.170;7.538;2023-03-18T06:53:12;100570.44;;;10.60;88.19
56420;BME280;42323;52.170;7.538;2023-03-18T06:55:39;100570.63;;;10.58;87.99
56420;BME280;42323;52.170;7.538;2023-03-18T06:58:06;100567.16;;;10.58;88.13
56420;BME280;42323;52.170;7.538;2023-03-18T07:00:33;100561.84;;;10.66;88.43
56420;BME280;42323;52.170;7.538;2023-03-18T07:03:01;100570.09;;;10.77;87.61
56420;BME280;42323;52.170;7.538;2023-03-18T07:05:28;100569.03;;;10.87;86.87
56420;BME280;42323;52.170;7.538;2023-03-18T07:07:54;100567.78;;;10.97;86.65
56420;BME280;42323;52.170;7.538;2023-03-18T07:10:26;100574.56;;;11.07;86.11
56420;BME280;42323;52.170;7.538;2023-03-18T07:12:53;100583.16;;;11.15;85.84
56420;BME280;42323;52.170;7.538;2023-03-18T07:15:21;100574.28;;;11.16;85.24
56420;BME280;42323;52.170;7.538;2023-03-18T07:17:49;100577.56;;;11.18;85.62
56420;BME280;42323;52.170;7.538;2023-03-18T07:20:18;100586.97;;;11.27;85.34
56420;BME280;42323;52.170;7.538;2023-03-18T07:22:48;100585.41;;;11.33;84.75
56420;BME280;42323;52.170;7.538;2023-03-18T07:25:17;100577.25;;;11.43;83.84
56420;BME280;42323;52.170;7.538;2023-03-18T07:27:46;100598.59;;;11.54;83.59
56420;BME280;42323;52.170;7.538;2023-03-18T07:30:13;100596.88;;;11.62;83.80
56420;BME280;42323;52.170;7.538;2023-03-18T07:32:39;100594.13;;;11.70;83.30
56420;BME280;42323;52.170;7.538;2023-03-18T07:35:07;100598.66;;;11.76;82.94
56420;BME280;42323;52.170;7.538;2023-03-18T07:37:35;100604.47;;;11.71;82.88
56420;BME280;42323;52.170;7.538;2023-03-18T07:40:02;100600.03;;;11.72;83.72
56420;BME280;42323;52.170;7.538;2023-03-18T07:42:29;100605.72;;;11.75;82.65
56420;BME280;42323;52.170;7.538;2023-03-18T07:44:55;100613.66;;;11.82;82.83
56420;BME280;42323;52.170;7.538;2023-03-18T07:47:23;100616.84;;;11.77;82.99
56420;BME280;42323;52.170;7.538;2023-03-18T07:49:50;100617.78;;;11.85;82.01
56420;BME280;42323;52.170;7.538;2023-03-18T07:52:19;100615.97;;;11.85;82.93
56420;BME280;42323;52.170;7.538;2023-03-18T07:54:46;100615.41;;;11.90;83.26
56420;BME280;42323;52.170;7.538;2023-03-18T07:57:12;100612.84;;;11.81;82.65
56420;BME280;42323;52.170;7.538;2023-03-18T07:59:39;100612.97;;;11.88;82.36
56420;BME280;42323;52.170;7.538;2023-03-18T08:02:06;100624.53;;;11.94;82.19
56420;BME280;42323;52.170;7.538;2023-03-18T08:04:33;100628.38;;;12.13;82.26
56420;BME280;42323;52.170;7.538;2023-03-18T08:07:00;100620.31;;;12.14;81.09
56420;BME280;42323;52.170;7.538;2023-03-18T08:09:28;100623.09;;;12.27;80.80
56420;BME280;42323;52.170;7.538;2023-03-18T08:11:54;100627.31;;;12.28;82.07
56420;BME280;42323;52.170;7.538;2023-03-18T08:14:21;100631.81;;;12.35;81.20
56420;BME280;42323;52.170;7.538;2023-03-18T08:16:47;100628.66;;;12.39;79.91
56420;BME280;42323;52.170;7.538;2023-03-18T08:19:15;100627.53;;;12.48;80.00
56420;BME280;42323;52.170;7.538;2023-03-18T08:21:41;100628.59;;;12.54;79.43
56420;BME280;42323;52.170;7.538;2023-03-18T08:24:09;100625.75;;;12.55;79.53
56420;BME280;42323;52.170;7.538;2023-03-18T08:26:36;100635.63;;;12.75;78.59
56420;BME280;42323;52.170;7.538;2023-03-18T08:29:02;100637.13;;;12.84;77.92
56420;BME280;42323;52.170;7.538;2023-03-18T08:31:29;100635.25;;;12.78;78.23
56420;BME280;42323;52.170;7.538;2023-03-18T08:33:56;100636.88;;;12.79;77.74
56420;BME280;42323;52.170;7.538;2023-03-18T08:36:28;100639.00;;;12.69;78.84
56420;BME280;42323;52.170;7.538;2023-03-18T08:38:54;100641.94;;;12.80;78.46
56420;BME280;42323;52.170;7.538;2023-03-18T08:41:22;100648.06;;;12.88;77.40
56420;BME280;42323;52.170;7.538;2023-03-18T08:43:51;100645.69;;;12.93;77.75
56420;BME280;42323;52.170;7.538;2023-03-18T08:46:18;100644.09;;;12.98;77.32
56420;BME280;42323;52.170;7.538;2023-03-18T08:48:44;100632.78;;;12.98;76.87
56420;BME280;42323;52.170;7.538;2023-03-18T08:51:12;100653.34;;;12.88;77.60
56420;BME280;42323;52.170;7.538;2023-03-18T08:53:38;100660.56;;;12.79;78.41
56420;BME280;42323;52.170;7.538;2023-03-18T08:56:05;100659.91;;;12.77;77.91
56420;BME280;42323;52.170;7.538;2023-03-18T08:58:33;100668.00;;;12.75;78.64
56420;BME280;42323;52.170;7.538;2023-03-18T09:01:00;100663.47;;;12.69;78.68
56420;BME280;42323;52.170;7.538;2023-03-18T09:03:28;100678.44;;;12.69;78.67
56420;BME280;42323;52.170;7.538;2023-03-18T09:05:55;100679.44;;;12.68;77.99
56420;BME280;42323;52.170;7.538;2023-03-18T09:08:22;100690.34;;;12.65;79.24
56420;BME280;42323;52.170;7.538;2023-03-18T09:10:51;100687.22;;;12.76;78.24
56420;BME280;42323;52.170;7.538;2023-03-18T09:13:19;100684.91;;;12.88;77.91
56420;BME280;42323;52.170;7.538;2023-03-18T09:15:46;100685.31;;;13.13;77.10
56420;BME280;42323;52.170;7.538;2023-03-18T09:18:14;100678.00;;;13.36;75.95
56420;BME280;42323;52.170;7.538;2023-03-18T09:20:40;100676.97;;;13.72;75.21
56420;BME280;42323;52.170;7.538;2023-03-18T09:23:08;100677.66;;;13.94;74.25
56420;BME280;42323;52.170;7.538;2023-03-18T09:25:37;100681.56;;;14.11;73.50
56420;BME280;42323;52.170;7.538;2023-03-18T09:28:04;100680.41;;;14.27;71.70
56420;BME280;42323;52.170;7.538;2023-03-18T09:30:30;100675.78;;;14.36;71.14
56420;BME280;42323;52.170;7.538;2023-03-18T09:32:57;100684.91;;;14.46;70.53
56420;BME280;42323;52.170;7.538;2023-03-18T09:35:24;100693.47;;;14.48;69.54
56420;BME280;42323;52.170;7.538;2023-03-18T09:37:51;100672.13;;;14.37;69.01
56420;BME280;42323;52.170;7.538;2023-03-18T09:40:30;100678.69;;;14.61;69.28
56420;BME280;42323;52.170;7.538;2023-03-18T09:43:23;100693.53;;;14.82;68.90
56420;BME280;42323;52.170;7.538;2023-03-18T09:46:27;100695.56;;;14.99;68.77
56420;BME280;42323;52.170;7.538;2023-03-18T09:49:09;100686.63;;;15.20;67.66
56420;BME280;42323;52.170;7.538;2023-03-18T09:54:39;100684.59;;;15.16;64.99
56420;BME280;42323;52.170;7.538;2023-03-18T09:57:14;100688.84;;;15.10;66.13
56420;BME280;42323;52.170;7.538;2023-03-18T09:59:45;100705.47;;;15.30;65.77
56420;BME280;42323;52.170;7.538;2023-03-18T10:04:54;100709.53;;;15.06;66.51
56420;BME280;42323;52.170;7.538;2023-03-18T10:07:28;100706.91;;;15.33;66.14
56420;BME280;42323;52.170;7.538;2023-03-18T10:10:05;100715.31;;;15.88;64.92
56420;BME280;42323;52.170;7.538;2023-03-18T10:12:38;100700.59;;;17.69;58.58
56420;BME280;42323;52.170;7.538;2023-03-18T10:18:44;100718.69;;;16.15;61.77
56420;BME280;42323;52.170;7.538;2023-03-18T10:25:58;100717.41;;;18.90;53.67
56420;BME280;42323;52.170;7.538;2023-03-18T10:34:01;100717.44;;;19.48;52.09
56420;BME280;42323;52.170;7.538;2023-03-18T10:36:58;100711.38;;;20.91;48.08
56420;BME280;42323;52.170;7.538;2023-03-18T10:39:31;100707.91;;;21.63;45.81
56420;BME280;42323;52.170;7.538;2023-03-18T10:42:20;100701.50;;;22.29;44.33
56420;BME280;42323;52.170;7.538;2023-03-18T10:44:49;100715.63;;;21.81;46.08
56420;BME280;42323;52.170;7.538;2023-03-18T10:47:20;100719.91;;;20.30;49.46
56420;BME280;42323;52.170;7.538;2023-03-18T10:50:31;100725.06;;;18.68;52.90
56420;BME280;42323;52.170;7.538;2023-03-18T10:56:01;100723.19;;;19.80;50.46
56420;BME280;42323;52.170;7.538;2023-03-18T10:58:30;100725.41;;;21.20;47.04
56420;BME280;42323;52.170;7.538;2023-03-18T11:00:57;100711.69;;;20.32;48.04
56420;BME280;42323;52.170;7.538;2023-03-18T11:03:28;100721.63;;;18.37;52.85
56420;BME280;42323;52.170;7.538;2023-03-18T11:05:56;100722.63;;;17.26;56.23
56420;BME280;42323;52.170;7.538;2023-03-18T11:08:38;100721.66;;;17.45;56.29
56420;BME280;42323;52.170;7.538;2023-03-18T11:11:31;100727.13;;;17.69;55.94
56420;BME280;42323;52.170;7.538;2023-03-18T11:14:00;100718.88;;;18.44;52.55
56420;BME280;42323;52.170;7.538;2023-03-18T11:18:57;100726.31;;;17.00;55.92
56420;BME280;42323;52.170;7.538;2023-03-18T11:21:25;100706.88;;;16.56;57.01
56420;BME280;42323;52.170;7.538;2023-03-18T11:24:00;100710.19;;;17.26;56.18
56420;BME280;42323;52.170;7.538;2023-03-18T11:26:46;100698.13;;;17.74;53.61
56420;BME280;42323;52.170;7.538;2023-03-18T11:29:20;100714.75;;;18.18;53.08
56420;BME280;42323;52.170;7.538;2023-03-18T11:31:54;100711.63;;;18.81;51.23
56420;BME280;42323;52.170;7.538;2023-03-18T11:34:28;100718.91;;;18.97;51.29
56420;BME280;42323;52.170;7.538;2023-03-18T11:36:58;100721.84;;;18.36;51.63
56420;BME280;42323;52.170;7.538;2023-03-18T11:39:29;100710.25;;;17.63;53.47
56420;BME280;42323;52.170;7.538;2023-03-18T11:41:58;100704.06;;;17.69;53.28
56420;BME280;42323;52.170;7.538;2023-03-18T11:44:30;100700.28;;;19.91;48.46
56420;BME280;42323;52.170;7.538;2023-03-18T11:47:18;100701.28;;;21.87;44.20
56420;BME280;42323;52.170;7.538;2023-03-18T11:49:46;100694.75;;;23.66;40.58
56420;BME280;42323;52.170;7.538;2023-03-18T11:57:54;100684.66;;;25.51;35.84
56420;BME280;42323;52.170;7.538;2023-03-18T12:00:50;100686.34;;;22.67;41.06
56420;BME280;42323;52.170;7.538;2023-03-18T12:03:47;100683.41;;;24.21;37.96
56420;BME280;42323;52.170;7.538;2023-03-18T12:06:21;100688.44;;;25.45;35.76
56420;BME280;42323;52.170;7.538;2023-03-18T12:11:33;100680.75;;;24.98;34.99
56420;BME280;42323;52.170;7.538;2023-03-18T12:19:47;100677.00;;;25.19;35.08
56420;BME280;42323;52.170;7.538;2023-03-18T12:25:11;100664.63;;;24.01;36.83
56420;BME280;42323;52.170;7.538;2023-03-18T12:28:22;100679.34;;;22.29;40.18
56420;BME280;42323;52.170;7.538;2023-03-18T12:33:55;100666.13;;;25.55;34.82
56420;BME280;42323;52.170;7.538;2023-03-18T12:36:51;100662.41;;;26.79;32.30
56420;BME280;42323;52.170;7.538;2023-03-18T12:44:47;100669.88;;;28.21;27.62
56420;BME280;42323;52.170;7.538;2023-03-18T12:47:24;100660.72;;;27.60;28.54
56420;BME280;42323;52.170;7.538;2023-03-18T12:50:02;100670.81;;;27.49;29.23
56420;BME280;42323;52.170;7.538;2023-03-18T12:52:54;100671.31;;;27.75;28.76
56420;BME280;42323;52.170;7.538;2023-03-18T12:55:31;100666.38;;;27.59;28.50
56420;BME280;42323;52.170;7.538;2023-03-18T12:58:12;100679.16;;;25.92;31.29
56420;BME280;42323;52.170;7.538;2023-03-18T13:00:46;100674.19;;;23.76;34.62
56420;BME280;42323;52.170;7.538;2023-03-18T13:03:30;100672.63;;;21.56;39.49
56420;BME280;42323;52.170;7.538;2023-03-18T13:11:23;100673.75;;;22.63;39.67
56420;BME280;42323;52.170;7.538;2023-03-18T13:13:57;100659.88;;;21.85;39.42
56420;BME280;42323;52.170;7.538;2023-03-18T13:16:26;100660.53;;;22.83;39.04
56420;BME280;42323;52.170;7.538;2023-03-18T13:18:55;100660.28;;;23.27;37.95
56420;BME280;42323;52.170;7.538;2023-03-18T13:21:26;100661.69;;;24.18;35.12
56420;BME280;42323;52.170;7.538;2023-03-18T13:29:18;100657.84;;;21.70;39.57
56420;BME280;42323;52.170;7.538;2023-03-18T13:40:24;100669.06;;;26.87;30.01
56420;BME280;42323;52.170;7.538;2023-03-18T13:43:07;100618.44;;;22.95;35.89
56420;BME280;42323;52.170;7.538;2023-03-18T13:45:43;100642.72;;;22.57;37.58
56420;BME280;42323;52.170;7.538;2023-03-18T13:50:41;100622.38;;;20.24;42.53
56420;BME280;42323;52.170;7.538;2023-03-18T13:53:32;100631.38;;;20.07;43.19
56420;BME280;42323;52.170;7.538;2023-03-18T13:56:05;100637.78;;;20.51;43.16
56420;BME280;42323;52.170;7.538;2023-03-18T13:58:49;100665.38;;;22.22;39.71
56420;BME280;42323;52.170;7.538;2023-03-18T14:01:27;100649.66;;;23.32;37.22
56420;BME280;42323;52.170;7.538;2023-03-18T14:03:58;100650.28;;;23.02;37.98
56420;BME280;42323;52.170;7.538;2023-03-18T14:09:22;100650.41;;;21.50;40.20
56420;BME280;42323;52.170;7.538;2023-03-18T14:20:15;100640.94;;;20.36;43.16
56420;BME280;42323;52.170;7.538;2023-03-18T14:22:53;100628.38;;;19.86;43.85
56420;BME280;42323;52.170;7.538;2023-03-18T14:25:22;100638.34;;;19.55;45.22
56420;BME280;42323;52.170;7.538;2023-03-18T14:35:50;100639.47;;;18.84;47.00
56420;BME280;42323;52.170;7.538;2023-03-18T14:38:23;100636.41;;;18.69;47.31
56420;BME280;42323;52.170;7.538;2023-03-18T14:40:57;100633.88;;;18.50;47.75
56420;BME280;42323;52.170;7.538;2023-03-18T14:43:44;100627.25;;;18.29;48.14
56420;BME280;42323;52.170;7.538;2023-03-18T14:46:17;100603.63;;;17.98;48.78
56420;BME280;42323;52.170;7.538;2023-03-18T14:48:53;100625.78;;;18.03;49.94
56420;BME280;42323;52.170;7.538;2023-03-18T14:51:21;100623.59;;;18.00;49.55
56420;BME280;42323;52.170;7.538;2023-03-18T14:54:03;100603.00;;;17.84;49.56
56420;BME280;42323;52.170;7.538;2023-03-18T14:56:38;100614.19;;;17.86;49.74
56420;BME280;42323;52.170;7.538;2023-03-18T14:59:13;100612.88;;;17.77;49.68
56420;BME280;42323;52.170;7.538;2023-03-18T15:01:44;100608.22;;;17.72;49.94
56420;BME280;42323;52.170;7.538;2023-03-18T15:04:17;100605.81;;;17.71;50.21
56420;BME280;42323;52.170;7.538;2023-03-18T15:06:46;100579.69;;;17.56;50.33
56420;BME280;42323;52.170;7.538;2023-03-18T15:09:19;100593.28;;;17.78;50.06
56420;BME280;42323;52.170;7.538;2023-03-18T15:11:47;100603.38;;;17.88;49.88
56420;BME280;42323;52.170;7.538;2023-03-18T15:14:20;100591.81;;;17.82;49.86
56420;BME280;42323;52.170;7.538;2023-03-18T15:16:49;100604.97;;;17.89;50.11
56420;BME280;42323;52.170;7.538;2023-03-18T15:19:17;100578.19;;;17.60;50.02
56420;BME280;42323;52.170;7.538;2023-03-18T15:21:46;100531.06;;;17.14;50.97
56420;BME280;42323;52.170;7.538;2023-03-18T15:24:26;100534.63;;;17.08;51.52
56420;BME280;42323;52.170;7.538;2023-03-18T15:27:03;100602.13;;;17.35;51.86
56420;BME280;42323;52.170;7.538;2023-03-18T15:29:32;100602.09;;;17.23;52.34
56420;BME280;42323;52.170;7.538;2023-03-18T15:32:15;100575.06;;;16.96;52.03
56420;BME280;42323;52.170;7.538;2023-03-18T15:34:44;100602.50;;;17.02;52.90